Time;durP1;ratioP1;P1;durP2;ratioP2;P2;SDS_P1;SDS_P2;PMS_P1;PMS_P2;Temp;Humidity;BMP_temperature;BMP_pressure;BME280_temperature;BME280_humidity;BME280_pressure;Samples;Min_cycle;Max_cycle;Signal;HPM_P1;HPM_P2
2023/05/21 00:01:38;;;;;;;6.63;5.97;;;14.30;99.90;;;;;;5093891;28;20407;-68
2023/05/21 00:04:06;;;;;;;7.50;5.77;;;14.30;99.90;;;;;;5093748;28;20189;-68
2023/05/21 00:06:34;;;;;;;9.50;5.93;;;14.30;99.90;;;;;;5093634;28;20396;-68
2023/05/21 00:09:01;;;;;;;10.50;7.03;;;14.30;99.90;;;;;;5093428;28;20404;-67
2023/05/21 00:11:26;;;;;;;9.00;7.07;;;14.20;99.90;;;;;;5093666;28;20388;-68
2023/05/21 00:13:52;;;;;;;9.77;7.40;;;14.20;99.90;;;;;;5093520;28;20450;-68
2023/05/21 00:16:17;;;;;;;7.33;6.40;;;14.20;99.90;;;;;;5093569;28;20643;-68
2023/05/21 00:18:43;;;;;;;9.17;7.20;;;14.20;99.90;;;;;;5093282;28;20190;-68
2023/05/21 00:21:09;;;;;;;9.33;5.53;;;14.10;99.90;;;;;;5093577;28;20219;-68
2023/05/21 00:23:36;;;;;;;6.97;5.90;;;14.10;99.90;;;;;;5093370;28;20483;-68
2023/05/21 00:26:01;;;;;;;9.40;6.73;;;14.10;99.90;;;;;;5093496;28;20165;-69
2023/05/21 00:28:27;;;;;;;7.73;6.60;;;14.00;99.90;;;;;;5093153;28;20740;-67
2023/05/21 00:30:52;;;;;;;7.20;6.27;;;14.00;99.90;;;;;;5093257;28;20162;-67
2023/05/21 00:33:20;;;;;;;10.20;6.03;;;13.90;99.90;;;;;;5093246;28;20249;-68
2023/05/21 00:35:46;;;;;;;9.00;6.77;;;13.90;99.90;;;;;;5093229;28;20389;-68
2023/05/21 00:38:13;;;;;;;9.50;6.77;;;13.90;99.90;;;;;;5092685;28;20426;-68
2023/05/21 00:40:40;;;;;;;7.77;6.97;;;13.80;99.90;;;;;;5093095;28;20168;-68
2023/05/21 00:43:08;;;;;;;9.47;7.13;;;13.80;99.90;;;;;;5092937;28;20455;-68
2023/05/21 00:45:35;;;;;;;11.50;6.60;;;13.80;99.90;;;;;;5093049;28;21059;-67
2023/05/21 00:48:03;;;;;;;8.53;7.63;;;13.80;99.90;;;;;;5092058;28;20553;-68
2023/05/21 00:50:29;;;;;;;9.20;6.80;;;13.80;99.90;;;;;;5092913;28;20395;-68
2023/05/21 00:52:55;;;;;;;7.60;6.27;;;13.80;99.90;;;;;;5092852;28;20927;-68
2023/05/21 00:55:21;;;;;;;9.30;6.27;;;13.80;99.90;;;;;;5092867;28;20403;-68
2023/05/21 00:57:46;;;;;;;8.20;6.27;;;13.80;99.90;;;;;;5092689;28;20511;-68
2023/05/21 01:00:13;;;;;;;8.40;6.47;;;13.80;99.90;;;;;;5092728;28;20207;-68
2023/05/21 01:02:39;;;;;;;8.80;6.97;;;13.80;99.90;;;;;;5092709;28;20262;-68
2023/05/21 01:05:05;;;;;;;9.90;6.67;;;13.80;99.90;;;;;;5092698;28;20890;-68
2023/05/21 01:07:37;;;;;;;8.93;6.57;;;13.80;99.90;;;;;;5092248;28;20200;-68
2023/05/21 01:10:05;;;;;;;8.30;5.93;;;13.80;99.90;;;;;;5092628;28;20813;-68
2023/05/21 01:12:31;;;;;;;10.20;6.93;;;13.80;99.90;;;;;;5092455;28;20402;-68
2023/05/21 01:15:00;;;;;;;9.03;7.50;;;13.80;99.90;;;;;;5092411;28;20427;-69
2023/05/21 01:17:27;;;;;;;12.13;8.07;;;13.80;99.90;;;;;;5092121;28;20428;-68
2023/05/21 01:19:56;;;;;;;12.37;8.47;;;13.80;99.90;;;;;;5092313;28;20414;-68
2023/05/21 01:22:23;;;;;;;7.80;6.70;;;13.90;99.90;;;;;;5092304;28;20451;-68
2023/05/21 01:24:49;;;;;;;12.80;7.73;;;13.90;99.90;;;;;;5092292;28;20424;-68
2023/05/21 01:27:15;;;;;;;10.50;7.43;;;13.90;99.90;;;;;;5092128;28;20492;-68
2023/05/21 01:29:41;;;;;;;10.20;7.37;;;13.90;99.90;;;;;;5092173;28;20399;-68
2023/05/21 01:32:46;;;;;;;9.53;6.83;;;14.00;99.90;;;;;;5073988;28;20792;-68
2023/05/21 01:35:39;;;;;;;10.37;7.73;;;14.00;99.90;;;;;;5091335;28;20673;-68
2023/05/21 01:38:16;;;;;;;9.30;8.03;;;14.00;99.90;;;;;;5091778;28;20419;-68
2023/05/21 01:40:54;;;;;;;8.00;6.70;;;14.00;99.90;;;;;;5091976;28;20486;-68
2023/05/21 01:43:22;;;;;;;9.53;6.67;;;14.10;99.90;;;;;;5092036;28;20465;-68
2023/05/21 01:45:52;;;;;;;9.30;6.30;;;14.10;99.90;;;;;;5092033;28;20402;-68
2023/05/21 01:48:18;;;;;;;8.03;7.03;;;14.10;99.90;;;;;;5091734;28;20415;-68
2023/05/21 01:50:45;;;;;;;12.20;7.20;;;14.10;99.90;;;;;;5092009;28;20922;-67
2023/05/21 01:53:11;;;;;;;7.47;5.80;;;14.10;99.90;;;;;;5091813;28;20438;-68
2023/05/21 01:55:40;;;;;;;8.47;7.17;;;14.10;99.90;;;;;;5091998;28;20431;-68
2023/05/21 01:58:06;;;;;;;9.60;7.03;;;14.10;99.90;;;;;;5091539;28;20209;-68
2023/05/21 02:00:33;;;;;;;11.00;7.63;;;14.10;99.90;;;;;;5090954;28;20816;-68
2023/05/21 02:02:59;;;;;;;9.60;7.00;;;14.10;99.90;;;;;;5091607;28;20493;-68
2023/05/21 02:05:24;;;;;;;9.57;6.90;;;14.00;99.90;;;;;;5091729;28;20399;-68
2023/05/21 02:07:51;;;;;;;9.50;6.23;;;14.10;99.90;;;;;;5091340;28;20546;-67
2023/05/21 02:10:17;;;;;;;9.70;7.50;;;14.00;99.90;;;;;;5091727;28;20168;-68
2023/05/21 02:12:43;;;;;;;6.60;5.70;;;14.00;99.90;;;;;;5091570;28;20406;-68
2023/05/21 02:15:09;;;;;;;5.60;5.10;;;14.00;99.90;;;;;;5091723;28;20775;-68
2023/05/21 02:17:34;;;;;;;9.07;6.70;;;14.00;99.90;;;;;;5091411;28;20216;-68
2023/05/21 02:20:10;;;;;;;6.23;5.63;;;13.90;99.90;;;;;;5091746;28;20847;-68
2023/05/21 02:22:44;;;;;;;7.07;6.37;;;13.90;99.90;;;;;;5091690;28;20201;-68
2023/05/21 02:25:11;;;;;;;8.33;6.27;;;13.90;99.90;;;;;;5092196;28;20415;-68
2023/05/21 02:27:38;;;;;;;8.47;5.73;;;13.90;99.90;;;;;;5091269;28;20434;-69
2023/05/21 02:30:06;;;;;;;7.17;6.30;;;13.80;99.90;;;;;;5073507;28;20418;-68
2023/05/21 02:32:32;;;;;;;11.23;6.93;;;13.80;99.90;;;;;;5091680;28;20413;-68
2023/05/21 02:34:58;;;;;;;8.27;6.03;;;13.80;99.90;;;;;;5091473;28;20756;-68
2023/05/21 02:37:28;;;;;;;8.10;5.97;;;13.80;99.90;;;;;;5091333;28;20427;-69
2023/05/21 02:39:54;;;;;;;7.83;5.27;;;13.80;99.90;;;;;;5091636;28;20911;-68
2023/05/21 02:42:21;;;;;;;8.00;6.20;;;13.80;99.90;;;;;;5091386;28;20399;-68
2023/05/21 02:44:47;;;;;;;5.93;5.33;;;13.80;99.90;;;;;;5091511;28;20912;-68
2023/05/21 02:47:13;;;;;;;8.50;6.23;;;13.80;99.90;;;;;;5091141;28;20430;-68
2023/05/21 02:49:38;;;;;;;7.40;5.23;;;13.80;99.90;;;;;;5091387;28;20236;-68
2023/05/21 02:52:04;;;;;;;7.10;4.73;;;13.80;99.90;;;;;;5091507;28;20576;-68
2023/05/21 02:54:30;;;;;;;8.50;5.90;;;13.80;99.90;;;;;;5091610;28;20165;-68
2023/05/21 02:56:56;;;;;;;8.10;5.27;;;13.70;99.90;;;;;;5091032;28;20473;-68
2023/05/21 02:59:22;;;;;;;5.23;4.73;;;13.70;99.90;;;;;;5091307;28;20230;-67
2023/05/21 03:01:47;;;;;;;9.80;7.10;;;13.70;99.90;;;;;;5091274;28;20880;-68
2023/05/21 03:04:13;;;;;;;7.50;5.47;;;13.80;99.90;;;;;;5091698;28;20185;-68
2023/05/21 03:06:39;;;;;;;8.87;6.50;;;13.80;99.90;;;;;;5091231;28;20165;-68
2023/05/21 03:09:04;;;;;;;6.90;6.00;;;13.70;99.90;;;;;;5091047;28;20158;-68
2023/05/21 03:11:30;;;;;;;8.80;7.00;;;13.70;99.90;;;;;;5092999;28;20618;-68
2023/05/21 03:13:56;;;;;;;8.77;7.93;;;13.70;99.90;;;;;;5095118;28;20523;-67
2023/05/21 03:16:21;;;;;;;8.33;6.90;;;13.70;99.90;;;;;;5094785;28;20186;-68
2023/05/21 03:18:47;;;;;;;8.80;6.67;;;13.70;99.90;;;;;;5094357;28;20193;-68
2023/05/21 03:21:14;;;;;;;9.33;6.90;;;13.70;99.90;;;;;;5094759;28;20166;-67
2023/05/21 03:23:40;;;;;;;8.00;7.20;;;13.70;99.90;;;;;;5094661;28;20277;-68
2023/05/21 03:26:06;;;;;;;9.00;6.90;;;13.70;99.90;;;;;;5094644;28;20408;-68
2023/05/21 03:28:32;;;;;;;10.30;7.17;;;13.70;99.90;;;;;;5094339;28;20832;-69
2023/05/21 03:30:58;;;;;;;10.30;7.40;;;13.70;99.90;;;;;;5094551;28;20399;-68
2023/05/21 03:33:23;;;;;;;8.73;7.07;;;13.70;99.90;;;;;;5094481;28;20648;-69
2023/05/21 03:35:49;;;;;;;9.83;7.50;;;13.70;99.90;;;;;;5094440;28;20479;-68
2023/05/21 03:38:15;;;;;;;7.83;6.83;;;13.70;99.90;;;;;;5094153;28;20224;-68
2023/05/21 03:40:40;;;;;;;8.70;7.40;;;13.70;99.90;;;;;;5094783;28;20431;-68
2023/05/21 03:43:06;;;;;;;8.53;7.50;;;13.70;99.90;;;;;;5094222;28;20189;-68
2023/05/21 03:45:31;;;;;;;7.80;6.03;;;13.70;99.90;;;;;;5094231;28;20195;-68
2023/05/21 03:47:57;;;;;;;9.13;5.70;;;13.70;99.90;;;;;;5093875;28;20276;-68
2023/05/21 03:50:22;;;;;;;9.73;7.00;;;13.70;99.90;;;;;;5094155;28;20166;-68
2023/05/21 03:52:48;;;;;;;9.43;7.10;;;13.70;99.90;;;;;;5094279;28;20181;-68
2023/05/21 03:55:13;;;;;;;9.07;8.03;;;13.70;99.90;;;;;;5094048;28;20222;-68
2023/05/21 03:57:40;;;;;;;6.97;6.27;;;13.70;99.90;;;;;;5093765;28;20205;-68
2023/05/21 04:00:07;;;;;;;7.67;6.50;;;13.80;99.90;;;;;;5094195;28;20178;-69
2023/05/21 04:02:33;;;;;;;8.73;7.43;;;13.80;99.90;;;;;;5093914;28;20481;-68
2023/05/21 04:04:58;;;;;;;8.63;7.10;;;13.80;99.90;;;;;;5094060;28;20403;-68
2023/05/21 04:07:25;;;;;;;9.93;7.03;;;13.80;99.90;;;;;;5093752;28;20220;-69
2023/05/21 04:09:51;;;;;;;8.70;6.37;;;13.90;99.90;;;;;;5093869;28;20510;-69
2023/05/21 04:12:18;;;;;;;9.10;6.53;;;13.90;99.90;;;;;;5093753;28;20495;-69
2023/05/21 04:14:45;;;;;;;9.13;6.57;;;13.90;99.90;;;;;;5093695;28;20424;-68
2023/05/21 04:17:11;;;;;;;10.27;6.90;;;14.00;99.90;;;;;;5093937;28;20457;-68
2023/05/21 04:19:37;;;;;;;8.17;6.83;;;14.00;99.90;;;;;;5093839;28;20468;-69
2023/05/21 04:22:03;;;;;;;8.57;6.57;;;14.00;99.90;;;;;;5093222;28;20425;-69
2023/05/21 04:24:29;;;;;;;11.83;7.17;;;14.00;99.90;;;;;;5093191;28;20455;-68
2023/05/21 04:26:56;;;;;;;9.13;6.60;;;14.10;99.90;;;;;;5093095;28;20431;-68
2023/05/21 04:29:21;;;;;;;11.10;7.50;;;14.10;99.90;;;;;;5093346;28;20478;-69
2023/05/21 04:31:48;;;;;;;6.70;6.00;;;14.10;99.90;;;;;;5093402;28;20436;-68
2023/05/21 04:34:16;;;;;;;7.60;6.60;;;14.20;99.90;;;;;;5093596;28;20198;-68
2023/05/21 04:36:42;;;;;;;11.77;7.90;;;14.20;99.90;;;;;;5093229;28;20858;-68
2023/05/21 04:39:08;;;;;;;8.70;5.80;;;14.30;99.90;;;;;;5092913;28;20411;-68
2023/05/21 04:41:33;;;;;;;8.50;6.27;;;14.30;99.90;;;;;;5093161;28;20767;-69
2023/05/21 04:43:59;;;;;;;7.90;6.17;;;14.40;99.90;;;;;;5093036;28;20197;-68
2023/05/21 04:46:25;;;;;;;7.27;6.43;;;14.40;99.90;;;;;;5093043;28;20177;-69
2023/05/21 04:48:54;;;;;;;7.03;5.93;;;14.50;99.90;;;;;;5092705;28;20388;-69
2023/05/21 04:51:21;;;;;;;7.87;6.10;;;14.50;99.90;;;;;;5093188;28;20173;-69
2023/05/21 04:53:48;;;;;;;8.93;7.47;;;14.60;99.90;;;;;;5092869;28;20415;-69
2023/05/21 04:56:15;;;;;;;7.70;6.77;;;14.70;99.90;;;;;;5092847;28;20407;-69
2023/05/21 04:58:40;;;;;;;13.63;8.10;;;14.70;99.90;;;;;;5092467;28;20979;-69
2023/05/21 05:01:07;;;;;;;8.13;6.60;;;14.80;99.90;;;;;;5093123;28;20503;-68
2023/05/21 05:03:33;;;;;;;5.87;5.30;;;14.90;99.90;;;;;;5092641;28;20193;-68
2023/05/21 05:05:59;;;;;;;8.30;6.17;;;14.90;99.90;;;;;;5093064;28;20415;-68
2023/05/21 05:08:24;;;;;;;11.00;6.13;;;15.00;99.90;;;;;;5092443;28;20672;-68
2023/05/21 05:10:50;;;;;;;7.10;5.60;;;15.10;99.90;;;;;;5092848;28;20645;-68
2023/05/21 05:13:15;;;;;;;9.00;5.50;;;15.10;99.90;;;;;;5092483;28;20181;-68
2023/05/21 05:15:41;;;;;;;7.80;6.17;;;15.20;99.90;;;;;;5092639;28;20165;-69
2023/05/21 05:18:10;;;;;;;7.37;5.27;;;15.30;99.90;;;;;;5092161;28;20182;-69
2023/05/21 05:20:36;;;;;;;7.73;6.20;;;15.40;99.90;;;;;;5092435;28;20166;-68
2023/05/21 05:23:01;;;;;;;8.23;6.10;;;15.50;99.90;;;;;;5092303;28;20542;-68
2023/05/21 05:25:27;;;;;;;8.83;5.43;;;15.50;99.90;;;;;;5092391;28;20166;-69
2023/05/21 05:27:52;;;;;;;6.63;5.60;;;15.60;99.90;;;;;;5092036;28;20181;-68
2023/05/21 05:30:19;;;;;;;5.23;4.53;;;15.70;99.90;;;;;;5092334;28;20195;-68
2023/05/21 05:32:45;;;;;;;7.10;5.63;;;15.80;99.90;;;;;;5092298;28;20169;-68
2023/05/21 05:35:11;;;;;;;6.67;5.97;;;15.90;99.90;;;;;;5092180;28;20399;-68
2023/05/21 05:37:37;;;;;;;8.43;4.90;;;16.00;99.90;;;;;;5091869;28;20928;-68
2023/05/21 05:40:04;;;;;;;6.00;4.90;;;16.10;99.90;;;;;;5092106;28;20165;-68
2023/05/21 05:42:29;;;;;;;6.90;5.73;;;16.20;99.90;;;;;;5091983;28;20258;-69
2023/05/21 05:44:55;;;;;;;6.33;5.37;;;16.40;99.90;;;;;;5092361;28;20396;-69
2023/05/21 05:47:20;;;;;;;6.10;4.83;;;16.50;99.90;;;;;;5091949;28;20189;-69
2023/05/21 05:49:46;;;;;;;5.37;4.53;;;16.60;99.90;;;;;;5092095;28;20236;-69
2023/05/21 05:52:11;;;;;;;6.17;5.10;;;16.70;99.90;;;;;;5092147;28;20170;-68
2023/05/21 05:54:37;;;;;;;10.00;6.37;;;16.90;99.90;;;;;;5091927;28;20165;-68
2023/05/21 05:57:03;;;;;;;7.90;5.93;;;17.00;99.90;;;;;;5091681;28;20186;-68
2023/05/21 05:59:29;;;;;;;7.10;5.57;;;17.10;99.90;;;;;;5091957;28;20162;-68
2023/05/21 06:01:54;;;;;;;8.20;5.90;;;17.30;99.90;;;;;;5091932;28;20158;-69
2023/05/21 06:04:20;;;;;;;6.23;5.17;;;17.50;99.90;;;;;;5091937;28;20380;-69
2023/05/21 06:06:46;;;;;;;7.40;6.60;;;17.70;99.90;;;;;;5091782;28;20670;-69
2023/05/21 06:09:11;;;;;;;5.70;5.20;;;17.90;99.90;;;;;;5091650;28;20165;-68
2023/05/21 06:11:37;;;;;;;7.03;5.37;;;18.00;99.90;;;;;;5091886;28;20776;-69
2023/05/21 06:14:03;;;;;;;5.97;5.13;;;18.20;99.90;;;;;;5091783;28;20282;-68
2023/05/21 06:16:30;;;;;;;5.67;4.70;;;18.40;99.90;;;;;;5091742;28;20443;-68
2023/05/21 06:18:56;;;;;;;6.87;5.70;;;18.50;99.90;;;;;;5091619;28;20230;-69
2023/05/21 06:21:21;;;;;;;6.57;5.50;;;18.70;99.90;;;;;;5091933;28;20400;-68
2023/05/21 06:23:47;;;;;;;7.03;5.40;;;19.10;99.90;;;;;;5091904;28;20443;-69
2023/05/21 06:26:12;;;;;;;8.13;5.67;;;19.50;99.90;;;;;;5091834;28;20165;-68
2023/05/21 06:28:38;;;;;;;6.27;5.37;;;19.80;99.90;;;;;;5091632;28;20662;-68
2023/05/21 06:31:03;;;;;;;9.90;5.27;;;20.00;99.90;;;;;;5091967;28;20646;-69
2023/05/21 06:33:29;;;;;;;7.73;6.17;;;20.30;99.90;;;;;;5091734;28;20249;-68
2023/05/21 06:35:54;;;;;;;7.90;5.20;;;20.70;99.90;;;;;;5091570;28;20256;-69
2023/05/21 06:38:20;;;;;;;6.10;5.50;;;21.00;99.90;;;;;;5091247;28;20185;-68
2023/05/21 06:40:46;;;;;;;5.13;4.60;;;21.10;99.90;;;;;;5091533;28;20162;-68
2023/05/21 06:43:13;;;;;;;5.87;5.00;;;21.20;99.90;;;;;;5091440;28;20185;-69
2023/05/21 06:45:38;;;;;;;5.50;4.60;;;21.60;99.90;;;;;;5092175;28;20560;-68
2023/05/21 06:48:04;;;;;;;6.27;4.90;;;22.20;99.90;;;;;;5095211;28;21026;-68
2023/05/21 06:50:30;;;;;;;5.50;5.00;;;23.00;99.90;;;;;;5095285;28;20199;-67
2023/05/21 06:52:55;;;;;;;7.40;4.90;;;23.80;99.90;;;;;;5095280;28;20407;-67
2023/05/21 06:55:21;;;;;;;5.00;4.50;;;24.70;99.90;;;;;;5095384;28;20168;-67
2023/05/21 06:57:47;;;;;;;4.53;4.13;;;25.60;99.90;;;;;;5094918;28;20186;-67
2023/05/21 07:00:13;;;;;;;6.80;5.43;;;26.60;99.90;;;;;;5095266;28;20204;-68
2023/05/21 07:02:38;;;;;;;6.33;5.83;;;27.50;94.60;;;;;;5095068;28;20193;-68
2023/05/21 07:05:04;;;;;;;8.83;6.20;;;28.20;87.40;;;;;;5095111;28;20157;-67
2023/05/21 07:07:29;;;;;;;5.47;4.90;;;28.80;80.80;;;;;;5094613;28;20502;-68
2023/05/21 07:09:55;;;;;;;5.83;3.50;;;29.30;74.70;;;;;;5094827;28;20657;-68
2023/05/21 07:12:21;;;;;;;6.47;4.87;;;30.00;70.70;;;;;;5095252;28;20587;-68
2023/05/21 07:14:46;;;;;;;4.60;4.07;;;30.50;66.60;;;;;;5094894;28;20244;-68
2023/05/21 07:17:12;;;;;;;4.80;4.40;;;30.90;61.20;;;;;;5094540;28;20193;-68
2023/05/21 07:19:37;;;;;;;4.33;3.93;;;31.20;58.30;;;;;;5094763;28;20165;-68
2023/05/21 07:22:04;;;;;;;6.70;4.87;;;31.30;56.70;;;;;;5094754;28;20219;-68
2023/05/21 07:24:30;;;;;;;5.23;4.73;;;31.20;55.60;;;;;;5094542;28;20217;-68
2023/05/21 07:26:55;;;;;;;4.40;4.00;;;31.20;54.50;;;;;;5094551;28;20435;-68
2023/05/21 07:29:21;;;;;;;5.10;3.83;;;31.20;54.30;;;;;;5094717;28;20216;-69
2023/05/21 07:31:47;;;;;;;4.83;4.40;;;31.10;53.60;;;;;;5094596;28;20161;-68
2023/05/21 07:34:12;;;;;;;4.60;4.20;;;31.00;53.30;;;;;;5094488;28;20176;-68
2023/05/21 07:36:38;;;;;;;5.23;4.73;;;30.90;53.20;;;;;;5094432;28;20288;-68
2023/05/21 07:39:03;;;;;;;5.37;4.50;;;30.70;52.80;;;;;;5094139;28;20161;-68
2023/05/21 07:41:29;;;;;;;5.00;4.53;;;30.60;52.40;;;;;;5094539;28;20176;-68
2023/05/21 07:43:55;;;;;;;4.50;4.10;;;30.50;52.70;;;;;;5094233;28;20197;-67
2023/05/21 07:46:20;;;;;;;6.33;4.80;;;30.30;52.70;;;;;;5094345;28;20635;-67
2023/05/21 07:48:47;;;;;;;4.47;4.07;;;30.30;53.60;;;;;;5093850;28;20238;-67
2023/05/21 07:51:13;;;;;;;6.70;3.90;;;30.80;54.20;;;;;;5094270;28;20653;-68
2023/05/21 07:53:38;;;;;;;5.20;3.87;;;31.20;53.20;;;;;;5094095;28;20399;-67
2023/05/21 07:56:04;;;;;;;5.17;4.77;;;31.40;52.30;;;;;;5094174;28;20404;-68
2023/05/21 07:58:30;;;;;;;5.70;4.90;;;31.40;50.90;;;;;;5093680;28;20185;-68
2023/05/21 08:00:56;;;;;;;5.67;5.13;;;31.10;50.80;;;;;;5094056;28;20168;-68
2023/05/21 08:03:22;;;;;;;5.27;4.77;;;31.20;51.60;;;;;;5093862;28;20185;-67
2023/05/21 08:05:48;;;;;;;4.83;4.43;;;31.50;51.20;;;;;;5093916;28;20169;-67
2023/05/21 08:08:22;;;;;;;5.47;4.97;;;32.20;50.70;;;;;;5093527;28;20423;-68
2023/05/21 08:10:48;;;;;;;6.63;5.07;;;33.40;50.50;;;;;;5094020;28;20172;-67
2023/05/21 08:13:15;;;;;;;4.87;4.47;;;35.10;49.00;;;;;;5093659;28;20428;-68
2023/05/21 08:15:40;;;;;;;5.63;5.17;;;37.10;45.00;;;;;;5093675;28;20176;-69
2023/05/21 08:18:06;;;;;;;5.10;4.60;;;38.70;42.20;;;;;;5093443;28;20427;-69
2023/05/21 08:20:32;;;;;;;5.97;5.30;;;39.60;39.70;;;;;;5093604;28;20212;-68
2023/05/21 08:23:01;;;;;;;5.10;4.70;;;40.30;38.00;;;;;;5093479;28;20567;-68
2023/05/21 08:25:27;;;;;;;6.20;5.10;;;40.80;37.00;;;;;;5093604;28;20373;-69
2023/05/21 08:27:52;;;;;;;5.40;4.90;;;41.60;35.60;;;;;;5093176;28;20427;-69
2023/05/21 08:30:18;;;;;;;5.60;5.20;;;42.10;34.60;;;;;;5093439;28;20583;-68
2023/05/21 08:32:44;;;;;;;5.47;5.00;;;42.40;33.10;;;;;;5093356;28;20172;-68
2023/05/21 08:35:09;;;;;;;5.33;4.90;;;42.70;32.90;;;;;;5093368;28;20211;-68
2023/05/21 08:37:35;;;;;;;6.20;5.70;;;43.20;31.60;;;;;;5092841;28;20682;-68
2023/05/21 08:40:01;;;;;;;5.30;4.90;;;43.60;30.70;;;;;;5093397;28;20162;-68
2023/05/21 08:42:32;;;;;;;5.50;5.10;;;43.50;30.00;;;;;;5093197;28;20170;-68
2023/05/21 08:44:59;;;;;;;5.63;5.13;;;43.30;30.00;;;;;;5093247;28;20169;-69
2023/05/21 08:47:26;;;;;;;5.23;4.27;;;43.10;30.10;;;;;;5092784;28;20406;-69
2023/05/21 08:49:53;;;;;;;4.37;3.97;;;43.10;30.40;;;;;;5092994;28;20389;-69
2023/05/21 08:52:20;;;;;;;5.73;5.20;;;43.50;29.50;;;;;;5093004;28;20471;-68
2023/05/21 08:54:46;;;;;;;5.10;4.70;;;44.00;29.00;;;;;;5093062;28;20430;-69
2023/05/21 08:57:14;;;;;;;5.47;5.07;;;44.40;28.70;;;;;;5092636;28;20434;-69
2023/05/21 08:59:42;;;;;;;6.63;6.23;;;44.90;28.50;;;;;;5092814;28;20408;-69
2023/05/21 09:02:12;;;;;;;5.67;5.17;;;45.30;27.80;;;;;;5092846;28;20378;-69
2023/05/21 09:04:39;;;;;;;5.63;5.20;;;45.50;27.90;;;;;;5092617;28;20932;-70
2023/05/21 09:07:06;;;;;;;4.87;4.47;;;45.40;27.50;;;;;;5092517;28;20442;-69
2023/05/21 09:09:38;;;;;;;5.67;5.27;;;44.90;27.70;;;;;;5092215;28;20378;-68
2023/05/21 09:12:04;;;;;;;5.73;5.23;;;44.30;27.80;;;;;;5092696;28;20383;-69
2023/05/21 09:14:31;;;;;;;6.20;5.70;;;43.70;28.10;;;;;;5092525;28;20452;-69
2023/05/21 09:16:56;;;;;;;6.40;5.90;;;43.30;28.40;;;;;;5092388;28;20989;-66
2023/05/21 09:19:22;;;;;;;5.00;4.60;;;43.30;29.00;;;;;;5092440;28;20382;-67
2023/05/21 09:21:50;;;;;;;6.00;5.40;;;44.10;29.00;;;;;;5092456;28;20169;-70
2023/05/21 09:24:16;;;;;;;5.67;5.27;;;45.00;28.10;;;;;;5092649;28;20693;-68
2023/05/21 09:26:44;;;;;;;4.87;4.47;;;45.70;27.70;;;;;;5092226;28;20469;-67
2023/05/21 09:29:12;;;;;;;5.57;5.17;;;47.00;27.50;;;;;;5092189;28;20165;-67
2023/05/21 09:31:42;;;;;;;6.20;5.80;;;48.40;27.00;;;;;;5092187;28;20432;-67
2023/05/21 09:34:08;;;;;;;6.57;6.10;;;49.50;26.10;;;;;;5092300;28;20461;-68
2023/05/21 09:36:37;;;;;;;5.30;5.00;;;50.40;25.40;;;;;;5092206;28;20442;-68
2023/05/21 09:39:03;;;;;;;5.87;5.37;;;50.80;25.60;;;;;;5092075;28;20207;-68
2023/05/21 09:41:34;;;;;;;5.77;5.33;;;51.20;24.90;;;;;;5092211;28;20394;-67
2023/05/21 09:44:03;;;;;;;6.23;5.80;;;51.70;24.60;;;;;;5092028;28;20374;-68
2023/05/21 09:46:39;;;;;;;6.37;5.87;;;51.70;24.20;;;;;;5092123;28;20373;-68
2023/05/21 09:49:04;;;;;;;6.07;5.57;;;51.20;23.70;;;;;;5091775;28;20366;-67
2023/05/21 09:51:30;;;;;;;5.50;5.10;;;50.80;24.00;;;;;;5091992;28;20429;-68
2023/05/21 09:53:56;;;;;;;5.80;5.30;;;50.90;24.40;;;;;;5092065;28;20191;-68
2023/05/21 09:56:25;;;;;;;5.53;5.13;;;51.50;24.00;;;;;;5092016;28;20957;-67
2023/05/21 09:59:08;;;;;;;7.50;6.90;;;51.90;23.60;;;;;;5091653;28;20164;-68
2023/05/21 10:01:35;;;;;;;7.30;6.80;;;52.40;23.30;;;;;;5092017;28;20396;-68
2023/05/21 10:04:05;;;;;;;5.87;5.47;;;52.60;23.30;;;;;;5091883;28;20399;-69
2023/05/21 10:06:33;;;;;;;6.00;5.60;;;52.90;23.40;;;;;;5091905;28;20465;-68
2023/05/21 10:09:02;;;;;;;7.17;6.57;;;52.90;23.00;;;;;;5091376;28;20408;-69
2023/05/21 10:11:30;;;;;;;5.13;4.73;;;52.20;22.90;;;;;;5091797;28;20528;-68
2023/05/21 10:14:06;;;;;;;5.97;5.47;;;51.10;23.00;;;;;;5091551;28;20534;-68
2023/05/21 10:16:33;;;;;;;6.93;5.60;;;50.10;23.50;;;;;;5091788;28;20395;-68
2023/05/21 10:18:59;;;;;;;5.50;5.10;;;49.50;23.60;;;;;;5091559;28;20424;-68
2023/05/21 10:21:25;;;;;;;6.00;5.50;;;48.90;24.10;;;;;;5093583;28;20771;-68
2023/05/21 10:23:52;;;;;;;5.80;5.30;;;47.80;23.90;;;;;;5095723;28;20404;-69
2023/05/21 10:26:23;;;;;;;5.90;5.40;;;46.70;24.50;;;;;;5095783;28;20503;-68
2023/05/21 10:28:50;;;;;;;6.10;5.50;;;46.30;25.00;;;;;;5095409;28;20472;-68
2023/05/21 10:31:15;;;;;;;6.30;5.80;;;46.20;25.40;;;;;;5095736;28;20871;-69
2023/05/21 10:33:42;;;;;;;6.40;5.90;;;46.20;25.40;;;;;;5095571;28;20446;-68
2023/05/21 10:36:08;;;;;;;8.80;8.03;;;46.30;25.50;;;;;;5096049;28;20162;-69
2023/05/21 10:38:36;;;;;;;7.10;6.50;;;46.20;25.50;;;;;;5095404;28;21021;-69
2023/05/21 10:41:03;;;;;;;6.73;6.03;;;45.80;25.60;;;;;;5095551;28;20374;-68
2023/05/21 10:43:40;;;;;;;7.73;7.13;;;45.60;25.70;;;;;;5095539;28;20434;-68
2023/05/21 10:46:29;;;;;;;7.27;6.67;;;45.30;25.80;;;;;;5095429;28;20442;-68
2023/05/21 10:49:29;;;;;;;6.23;5.77;;;44.80;26.40;;;;;;5095177;28;20407;-68
2023/05/21 10:52:25;;;;;;;6.77;6.17;;;45.60;26.30;;;;;;5095602;28;20749;-68
2023/05/21 10:55:28;;;;;;;7.43;6.20;;;46.50;25.90;;;;;;5095173;28;20386;-68
2023/05/21 10:58:20;;;;;;;6.57;6.07;;;47.50;25.60;;;;;;5094997;28;20443;-68
2023/05/21 11:00:45;;;;;;;6.77;6.10;;;48.70;25.40;;;;;;5095167;28;20878;-68
2023/05/21 11:03:12;;;;;;;6.60;6.20;;;49.60;24.90;;;;;;5095044;28;20447;-68
2023/05/21 11:05:51;;;;;;;7.20;6.70;;;50.50;24.70;;;;;;5095132;28;20184;-69
2023/05/21 11:08:22;;;;;;;6.60;6.10;;;51.30;24.20;;;;;;5094799;28;20923;-69
2023/05/21 11:10:56;;;;;;;6.50;6.03;;;51.90;24.10;;;;;;5095127;28;20396;-68
2023/05/21 11:13:22;;;;;;;6.50;5.97;;;52.20;23.40;;;;;;5094334;28;20434;-68
2023/05/21 11:15:57;;;;;;;6.53;6.10;;;52.00;23.40;;;;;;5093603;28;20375;-68
2023/05/21 11:18:29;;;;;;;7.57;7.07;;;51.30;23.20;;;;;;5093319;28;20810;-69
2023/05/21 11:21:05;;;;;;;7.47;6.87;;;50.50;23.30;;;;;;5093610;28;20370;-69
2023/05/21 11:23:49;;;;;;;7.93;7.23;;;49.80;23.60;;;;;;5093667;28;20403;-69
2023/05/21 11:26:22;;;;;;;7.40;6.80;;;48.90;23.70;;;;;;5093510;28;20749;-68
2023/05/21 11:29:09;;;;;;;7.97;7.27;;;47.80;24.10;;;;;;5093352;28;20430;-68
2023/05/21 11:31:38;;;;;;;7.17;6.67;;;47.10;25.00;;;;;;5074911;28;20796;-69
2023/05/21 11:34:33;;;;;;;7.43;6.83;;;47.60;25.70;;;;;;5093300;28;20417;-69
2023/05/21 11:37:17;;;;;;;8.03;7.37;;;48.80;25.50;;;;;;5093029;28;20764;-68
2023/05/21 11:39:43;;;;;;;7.43;6.93;;;50.30;24.90;;;;;;5093383;28;20359;-69
2023/05/21 11:42:09;;;;;;;6.90;6.40;;;51.50;24.00;;;;;;5075155;28;20806;-68
2023/05/21 11:44:46;;;;;;;7.70;7.10;;;52.70;24.00;;;;;;5093229;28;20404;-69
2023/05/21 11:47:16;;;;;;;8.27;7.57;;;53.70;23.00;;;;;;5093098;28;20238;-69
2023/05/21 11:49:43;;;;;;;7.73;7.23;;;54.30;22.80;;;;;;5093224;28;20463;-69
2023/05/21 11:52:10;;;;;;;7.27;6.77;;;54.40;22.50;;;;;;5093085;28;20410;-69
2023/05/21 11:54:45;;;;;;;7.80;7.10;;;54.60;22.20;;;;;;5092889;28;20810;-70
2023/05/21 11:57:11;;;;;;;8.80;8.20;;;54.90;22.10;;;;;;5092653;28;20394;-69
2023/05/21 11:59:37;;;;;;;8.17;7.47;;;55.30;22.00;;;;;;5092930;28;20400;-69
2023/05/21 12:02:03;;;;;;;7.20;6.80;;;55.40;21.70;;;;;;5092936;28;20396;-69
2023/05/21 12:04:35;;;;;;;7.67;7.17;;;55.50;21.70;;;;;;5092978;28;20411;-68
2023/05/21 12:07:07;;;;;;;7.27;6.87;;;55.40;21.70;;;;;;5092727;28;20386;-69
2023/05/21 12:09:46;;;;;;;7.50;6.90;;;55.30;21.80;;;;;;5092837;28;20415;-68
2023/05/21 12:12:17;;;;;;;8.03;7.47;;;55.10;21.80;;;;;;5092702;28;20923;-70
2023/05/21 12:14:48;;;;;;;7.30;6.80;;;54.60;21.70;;;;;;5054013;28;1127848;-69
2023/05/21 12:17:24;;;;;;;6.90;6.40;;;54.10;21.70;;;;;;5093423;28;20190;-68
2023/05/21 12:19:52;;;;;;;8.40;7.70;;;53.50;22.20;;;;;;5093705;28;20934;-69
2023/05/21 12:22:18;;;;;;;6.33;5.83;;;53.30;22.20;;;;;;5093632;28;20419;-69
2023/05/21 12:24:44;;;;;;;7.20;6.70;;;53.20;22.30;;;;;;5093716;28;20864;-71
2023/05/21 12:27:12;;;;;;;7.43;7.00;;;53.30;22.40;;;;;;5093130;28;20423;-70
2023/05/21 12:29:41;;;;;;;7.63;7.00;;;53.40;22.40;;;;;;5093433;28;20411;-70
2023/05/21 12:32:09;;;;;;;7.83;7.33;;;53.40;22.30;;;;;;5093530;28;20427;-71
2023/05/21 12:34:52;;;;;;;7.90;7.30;;;53.20;22.40;;;;;;5075285;28;20983;-70
2023/05/21 12:37:25;;;;;;;8.50;7.90;;;53.10;22.40;;;;;;5092942;28;20422;-70
2023/05/21 12:39:57;;;;;;;6.50;6.00;;;53.10;22.50;;;;;;5093306;28;20434;-70
2023/05/21 12:42:34;;;;;;;8.57;7.97;;;53.20;22.60;;;;;;5093200;28;20407;-70
2023/05/21 12:45:06;;;;;;;7.43;6.93;;;53.00;22.40;;;;;;5092483;28;20501;-70
2023/05/21 12:47:32;;;;;;;7.20;6.70;;;52.70;22.20;;;;;;5092756;28;20427;-70
2023/05/21 12:49:59;;;;;;;8.20;7.60;;;52.40;22.60;;;;;;5093107;28;20403;-70